createdAt,value
2023-05-24T00:00:48.279Z,3.03
2023-05-24T00:03:16.338Z,2.80
2023-05-24T00:05:43.497Z,3.20
2023-05-24T00:08:10.336Z,2.78
2023-05-24T00:10:37.169Z,3.38
2023-05-24T00:13:04.022Z,2.92
2023-05-24T00:15:30.901Z,3.10
2023-05-24T00:17:57.763Z,3.10
2023-05-24T00:20:24.743Z,2.85
2023-05-24T00:22:51.751Z,3.83
2023-05-24T00:25:18.604Z,3.88
2023-05-24T00:27:45.488Z,3.75
2023-05-24T00:30:12.750Z,3.92
2023-05-24T00:32:39.752Z,2.75
2023-05-24T00:35:06.973Z,3.10
2023-05-24T00:37:33.780Z,3.70
2023-05-24T00:40:00.612Z,3.33
2023-05-24T00:42:27.492Z,3.38
2023-05-24T00:44:54.305Z,3.53
2023-05-24T00:47:21.260Z,3.78
2023-05-24T00:49:48.135Z,3.72
2023-05-24T00:52:15.572Z,3.80
2023-05-24T00:54:42.474Z,3.55
2023-05-24T00:57:09.439Z,3.33
2023-05-24T00:59:36.609Z,3.60
2023-05-24T01:02:03.764Z,2.97
2023-05-24T01:04:33.106Z,3.47
2023-05-24T01:07:37.918Z,3.35
2023-05-24T01:10:30.784Z,3.78
2023-05-24T01:13:23.535Z,3.72
2023-05-24T01:16:17.823Z,5.15
2023-05-24T01:18:50.621Z,4.20
2023-05-24T01:21:34.580Z,4.47
2023-05-24T01:24:30.664Z,3.70
2023-05-24T01:27:12.422Z,4.60
2023-05-24T01:29:39.687Z,4.38
2023-05-24T01:32:07.397Z,3.85
2023-05-24T01:34:34.202Z,4.00
2023-05-24T01:37:01.021Z,3.85
2023-05-24T01:39:29.934Z,3.95
2023-05-24T01:42:33.639Z,3.80
2023-05-24T01:45:20.047Z,3.28
2023-05-24T01:48:19.561Z,4.30
2023-05-24T01:50:53.344Z,3.95
2023-05-24T01:53:21.524Z,3.92
2023-05-24T01:55:55.824Z,4.25
2023-05-24T02:00:51.930Z,4.13
2023-05-24T02:03:19.648Z,4.88
2023-05-24T02:05:46.736Z,4.05
2023-05-24T02:08:13.822Z,4.25
2023-05-24T02:10:41.368Z,4.78
2023-05-24T02:13:09.190Z,3.92
2023-05-24T02:15:36.395Z,4.65
2023-05-24T02:18:03.994Z,4.28
2023-05-24T02:20:31.490Z,4.30
2023-05-24T02:22:58.571Z,4.57
2023-05-24T02:25:25.581Z,4.97
2023-05-24T02:27:52.484Z,4.20
2023-05-24T02:30:19.571Z,4.95
2023-05-24T02:32:46.757Z,4.90
2023-05-24T02:35:13.858Z,4.13
2023-05-24T02:37:40.987Z,4.45
2023-05-24T02:40:08.537Z,3.88
2023-05-24T02:42:35.564Z,3.80
2023-05-24T02:45:02.857Z,4.38
2023-05-24T02:47:29.858Z,4.50
2023-05-24T02:49:56.725Z,4.25
2023-05-24T02:52:23.615Z,4.32
2023-05-24T02:54:50.817Z,4.78
2023-05-24T02:57:18.221Z,3.97
2023-05-24T02:59:45.061Z,4.47
2023-05-24T03:02:13.741Z,4.53
2023-05-24T03:04:40.788Z,4.70
2023-05-24T03:07:07.589Z,5.13
2023-05-24T03:09:34.435Z,5.28
2023-05-24T03:12:01.715Z,5.07
2023-05-24T03:14:28.517Z,4.40
2023-05-24T03:16:55.377Z,4.93
2023-05-24T03:19:22.673Z,5.32
2023-05-24T03:21:49.523Z,4.80
2023-05-24T03:24:16.355Z,4.97
2023-05-24T03:26:43.180Z,5.30
2023-05-24T03:29:10.054Z,5.55
2023-05-24T03:31:36.936Z,5.40
2023-05-24T03:34:03.861Z,5.80
2023-05-24T03:36:30.889Z,4.88
2023-05-24T03:38:58.996Z,6.63
2023-05-24T03:41:27.524Z,5.32
2023-05-24T03:43:54.361Z,6.28
2023-05-24T03:46:21.258Z,5.82
2023-05-24T03:48:49.585Z,5.80
2023-05-24T03:51:16.673Z,5.53
2023-05-24T03:53:43.681Z,5.20
2023-05-24T03:56:10.533Z,5.22
2023-05-24T03:58:37.504Z,6.10
2023-05-24T04:01:04.440Z,4.60
2023-05-24T04:03:34.198Z,6.07
2023-05-24T04:06:01.436Z,6.05
2023-05-24T04:08:28.352Z,5.88
2023-05-24T04:10:55.618Z,5.72
2023-05-24T04:13:22.529Z,5.60
2023-05-24T04:15:49.492Z,5.38
2023-05-24T04:18:16.496Z,5.93
2023-05-24T04:20:43.560Z,6.30
2023-05-24T04:23:10.614Z,5.78
2023-05-24T04:25:37.457Z,5.68
2023-05-24T04:28:04.271Z,5.03
2023-05-24T04:30:31.360Z,5.53
2023-05-24T04:32:58.783Z,6.47
2023-05-24T04:35:25.778Z,6.13
2023-05-24T04:37:52.832Z,6.25
2023-05-24T04:40:22.936Z,5.22
2023-05-24T04:42:50.529Z,6.55
2023-05-24T04:45:17.368Z,5.13
2023-05-24T04:47:44.891Z,6.32
2023-05-24T04:50:11.778Z,5.57
2023-05-24T04:52:38.775Z,5.30
2023-05-24T04:55:06.185Z,4.72
2023-05-24T04:57:33.086Z,5.15
2023-05-24T05:00:00.064Z,4.93
2023-05-24T05:02:27.219Z,4.88
2023-05-24T05:04:54.203Z,5.78
2023-05-24T05:07:21.528Z,6.07
2023-05-24T05:09:48.488Z,5.40
2023-05-24T05:12:18.185Z,5.18
2023-05-24T05:14:45.000Z,6.40
2023-05-24T05:17:11.829Z,4.65
2023-05-24T05:19:38.714Z,5.65
2023-05-24T05:22:05.605Z,6.88
2023-05-24T05:24:32.464Z,5.25
2023-05-24T05:26:59.306Z,5.88
2023-05-24T05:29:26.125Z,4.68
2023-05-24T05:31:53.025Z,5.90
2023-05-24T05:34:21.160Z,6.40
2023-05-24T05:36:48.033Z,5.32
2023-05-24T05:39:14.968Z,5.85
2023-05-24T05:41:45.754Z,6.45
2023-05-24T05:44:13.396Z,6.13
2023-05-24T05:46:41.514Z,5.93
2023-05-24T05:49:09.205Z,6.65
2023-05-24T05:51:37.813Z,4.82
2023-05-24T05:54:05.913Z,4.90
2023-05-24T05:56:32.861Z,5.55
2023-05-24T05:58:59.724Z,5.05
2023-05-24T06:01:26.675Z,5.28
2023-05-24T06:03:53.613Z,5.38
2023-05-24T06:06:20.502Z,5.15
2023-05-24T06:08:47.313Z,6.03
2023-05-24T06:11:14.221Z,4.75
2023-05-24T06:13:44.219Z,5.80
2023-05-24T06:16:11.246Z,5.05
2023-05-24T06:18:38.557Z,6.63
2023-05-24T06:21:05.545Z,5.57
2023-05-24T06:23:32.792Z,5.32
2023-05-24T06:26:01.456Z,5.40
2023-05-24T06:28:28.398Z,6.38
2023-05-24T06:30:55.451Z,4.93
2023-05-24T06:33:23.353Z,5.93
2023-05-24T06:35:50.217Z,6.10
2023-05-24T06:38:17.819Z,4.85
2023-05-24T06:40:44.829Z,4.57
2023-05-24T06:43:14.073Z,5.70
2023-05-24T06:45:41.568Z,5.85
2023-05-24T06:48:08.969Z,5.10
2023-05-24T06:50:39.105Z,6.00
2023-05-24T06:53:07.145Z,4.95
2023-05-24T06:55:34.055Z,6.18
2023-05-24T06:58:00.876Z,4.88
2023-05-24T07:00:27.813Z,5.40
2023-05-24T07:02:54.818Z,5.57
2023-05-24T07:05:22.213Z,4.93
2023-05-24T07:07:49.136Z,4.82
2023-05-24T07:10:15.944Z,4.47
2023-05-24T07:12:42.752Z,4.90
2023-05-24T07:15:10.130Z,5.38
2023-05-24T07:17:37.310Z,4.40
2023-05-24T07:20:09.499Z,4.57
2023-05-24T07:22:36.797Z,4.28
2023-05-24T07:25:04.572Z,5.15
2023-05-24T07:27:31.462Z,4.75
2023-05-24T07:29:58.706Z,4.15
2023-05-24T07:32:25.613Z,4.57
2023-05-24T07:34:52.549Z,4.10
2023-05-24T07:37:19.391Z,5.32
2023-05-24T07:39:46.275Z,4.32
2023-05-24T07:42:13.111Z,4.55
2023-05-24T07:44:40.531Z,5.63
2023-05-24T07:47:07.550Z,4.82
2023-05-24T07:49:34.400Z,3.97
2023-05-24T07:52:01.270Z,4.28
2023-05-24T07:54:28.180Z,5.18
2023-05-24T07:56:55.223Z,4.65
2023-05-24T07:59:22.893Z,4.55
2023-05-24T08:01:50.500Z,3.80
2023-05-24T08:04:17.308Z,4.25
2023-05-24T08:06:46.495Z,4.35
2023-05-24T08:09:13.405Z,4.78
2023-05-24T08:11:43.060Z,5.75
2023-05-24T08:14:12.900Z,4.40
2023-05-24T08:16:39.864Z,4.25
2023-05-24T08:19:06.864Z,5.10
2023-05-24T08:21:33.885Z,5.70
2023-05-24T08:24:04.401Z,4.43
2023-05-24T08:26:32.263Z,4.75
2023-05-24T08:28:59.412Z,5.10
2023-05-24T08:31:26.364Z,4.53
2023-05-24T08:33:54.919Z,4.90
2023-05-24T08:36:22.195Z,4.32
2023-05-24T08:38:52.031Z,5.32
2023-05-24T08:41:18.900Z,4.63
2023-05-24T08:43:47.722Z,5.22
2023-05-24T08:46:17.794Z,5.00
2023-05-24T08:48:48.400Z,4.80
2023-05-24T08:51:16.117Z,4.78
2023-05-24T08:53:48.408Z,5.13
2023-05-24T08:56:18.304Z,5.05
2023-05-24T08:58:48.038Z,5.07
2023-05-24T09:01:17.289Z,5.28
2023-05-24T09:03:46.804Z,4.25
2023-05-24T09:06:18.284Z,5.18
2023-05-24T09:08:46.180Z,5.35
2023-05-24T09:11:16.027Z,5.22
2023-05-24T09:13:45.393Z,5.28
2023-05-24T09:16:12.507Z,5.20
2023-05-24T09:18:41.688Z,4.75
2023-05-24T09:21:10.781Z,5.65
2023-05-24T09:23:38.167Z,5.32
2023-05-24T09:26:11.345Z,5.22
2023-05-24T09:28:38.852Z,6.13
2023-05-24T09:31:07.888Z,5.07
2023-05-24T09:33:35.990Z,4.78
2023-05-24T09:36:07.722Z,5.72
2023-05-24T09:38:36.326Z,5.43
2023-05-24T09:41:06.593Z,5.53
2023-05-24T09:43:36.102Z,4.55
2023-05-24T09:46:06.287Z,3.63
2023-05-24T09:48:33.092Z,3.75
2023-05-24T09:51:09.656Z,4.78
2023-05-24T09:53:37.180Z,3.70
2023-05-24T09:56:05.449Z,3.63
2023-05-24T09:58:33.446Z,3.88
2023-05-24T10:01:08.907Z,4.07
2023-05-24T10:03:37.437Z,4.18
2023-05-24T10:06:07.588Z,4.40
2023-05-24T10:08:36.342Z,3.83
2023-05-24T10:11:06.240Z,3.97
2023-05-24T10:13:36.515Z,4.43
2023-05-24T10:16:03.941Z,5.30
2023-05-24T10:18:31.304Z,4.00
2023-05-24T10:20:59.446Z,3.92
2023-05-24T10:23:31.023Z,4.28
2023-05-24T10:26:12.695Z,3.83
2023-05-24T10:28:44.942Z,3.55
2023-05-24T10:31:18.552Z,3.50
2023-05-24T10:33:48.598Z,3.78
2023-05-24T10:36:16.309Z,3.25
2023-05-24T10:38:43.616Z,3.35
2023-05-24T10:41:13.358Z,4.15
2023-05-24T10:43:40.543Z,3.40
2023-05-24T10:46:10.122Z,3.55
2023-05-24T10:48:41.640Z,3.60
2023-05-24T10:51:38.650Z,3.65
2023-05-24T10:54:18.081Z,4.82
2023-05-24T10:56:48.436Z,4.45
2023-05-24T10:59:39.087Z,4.00
2023-05-24T11:02:16.365Z,5.70
2023-05-24T11:04:46.906Z,6.05
2023-05-24T11:07:15.774Z,6.05
2023-05-24T11:09:46.506Z,7.40
2023-05-24T11:12:18.969Z,5.55
2023-05-24T11:14:52.055Z,6.93
2023-05-24T11:17:23.838Z,5.43
2023-05-24T11:19:53.076Z,5.75
2023-05-24T11:22:25.456Z,6.32
2023-05-24T11:24:53.328Z,5.63
2023-05-24T11:27:24.453Z,5.35
2023-05-24T11:29:52.599Z,5.93
2023-05-24T11:32:21.324Z,5.82
2023-05-24T11:34:48.946Z,6.75
2023-05-24T11:37:18.072Z,6.20
2023-05-24T11:39:52.097Z,5.00
2023-05-24T11:42:19.549Z,5.20
2023-05-24T11:44:49.839Z,6.15
2023-05-24T11:47:16.698Z,4.60
2023-05-24T11:49:43.514Z,5.05
2023-05-24T11:52:10.378Z,5.85
2023-05-24T11:54:38.753Z,6.53
2023-05-24T11:57:06.379Z,5.60
2023-05-24T11:59:35.689Z,5.07
2023-05-24T12:02:05.857Z,5.55
2023-05-24T12:04:36.556Z,5.50
2023-05-24T12:07:03.622Z,5.30
2023-05-24T12:09:30.567Z,5.07
2023-05-24T12:12:00.116Z,5.15
2023-05-24T12:14:35.700Z,5.63
2023-05-24T12:17:02.722Z,4.85
2023-05-24T12:19:37.284Z,6.03
2023-05-24T12:22:06.238Z,4.40
2023-05-24T12:24:34.017Z,5.07
2023-05-24T12:27:03.491Z,5.07
2023-05-24T12:29:36.310Z,5.15
2023-05-24T12:32:05.243Z,4.72
2023-05-24T12:34:32.807Z,5.53
2023-05-24T12:37:00.288Z,5.40
2023-05-24T12:39:35.157Z,4.75
2023-05-24T12:42:03.913Z,4.53
2023-05-24T12:44:39.265Z,5.35
2023-05-24T12:47:08.087Z,4.25
2023-05-24T12:49:35.726Z,6.28
2023-05-24T12:52:02.823Z,4.15
2023-05-24T12:54:30.292Z,4.15
2023-05-24T12:57:00.005Z,4.05
2023-05-24T12:59:28.473Z,3.97
2023-05-24T13:01:55.776Z,4.40
2023-05-24T13:04:26.045Z,4.20
2023-05-24T13:06:52.954Z,3.70
2023-05-24T13:09:22.355Z,5.38
2023-05-24T13:11:49.369Z,3.83
2023-05-24T13:14:16.871Z,4.30
2023-05-24T13:16:44.391Z,4.00
2023-05-24T13:19:12.333Z,4.22
2023-05-24T13:21:39.579Z,4.22
2023-05-24T13:24:07.527Z,4.07
2023-05-24T13:26:38.170Z,4.00
2023-05-24T13:31:39.237Z,3.58
2023-05-24T13:34:07.348Z,3.70
2023-05-24T13:36:35.117Z,3.78
2023-05-24T13:39:14.850Z,4.10
2023-05-24T13:41:49.251Z,3.35
2023-05-24T13:44:16.773Z,3.60
2023-05-24T13:46:44.504Z,2.92
2023-05-24T13:49:12.014Z,3.88
2023-05-24T13:51:40.081Z,3.05
2023-05-24T13:54:07.421Z,3.22
2023-05-24T13:56:35.209Z,3.33
2023-05-24T13:59:03.662Z,4.03
2023-05-24T14:01:31.269Z,3.83
2023-05-24T14:03:58.736Z,3.20
2023-05-24T14:06:25.686Z,3.78
2023-05-24T14:08:52.601Z,3.63
2023-05-24T14:11:19.713Z,4.13
2023-05-24T14:16:19.180Z,3.58
2023-05-24T14:18:48.912Z,3.75
2023-05-24T14:21:16.254Z,3.15
2023-05-24T14:23:43.111Z,3.60
2023-05-24T14:26:10.027Z,3.63
2023-05-24T14:28:36.872Z,3.55
2023-05-24T14:31:03.798Z,3.03
2023-05-24T14:33:30.668Z,2.25
2023-05-24T14:35:57.576Z,2.65
2023-05-24T14:38:25.348Z,2.92
2023-05-24T14:40:52.221Z,2.72
2023-05-24T14:43:19.079Z,3.28
2023-05-24T14:45:46.150Z,3.05
2023-05-24T14:48:15.967Z,2.53
2023-05-24T14:50:43.238Z,2.78
2023-05-24T14:53:12.186Z,2.55
2023-05-24T14:55:42.038Z,2.97
2023-05-24T14:58:11.335Z,2.30
2023-05-24T15:00:39.353Z,2.45
2023-05-24T15:03:07.913Z,2.60
2023-05-24T15:05:36.183Z,2.97
2023-05-24T15:08:03.219Z,2.50
2023-05-24T15:10:30.167Z,3.45
2023-05-24T15:12:57.009Z,2.97
2023-05-24T15:15:23.917Z,2.40
2023-05-24T15:17:50.898Z,2.97
2023-05-24T15:20:19.387Z,3.25
2023-05-24T15:22:46.629Z,3.13
2023-05-24T15:25:13.538Z,3.30
2023-05-24T15:27:40.359Z,3.15
2023-05-24T15:30:07.864Z,2.83
2023-05-24T15:32:34.874Z,3.17
2023-05-24T15:35:01.990Z,3.08
2023-05-24T15:37:28.858Z,3.05
2023-05-24T15:39:55.734Z,2.90
2023-05-24T15:42:24.480Z,3.50
2023-05-24T15:44:51.620Z,3.83
2023-05-24T15:47:21.172Z,3.95
2023-05-24T15:49:49.658Z,3.63
2023-05-24T15:52:16.730Z,4.43
2023-05-24T15:54:43.608Z,4.55
2023-05-24T15:57:10.805Z,4.05
2023-05-24T15:59:38.614Z,4.18
2023-05-24T16:02:07.792Z,4.47
2023-05-24T16:04:34.834Z,4.22
2023-05-24T16:07:01.810Z,4.53
2023-05-24T16:09:28.724Z,4.22
2023-05-24T16:11:55.609Z,4.32
2023-05-24T16:14:22.459Z,5.03
2023-05-24T16:16:49.324Z,4.20
2023-05-24T16:19:16.492Z,5.20
2023-05-24T16:21:43.367Z,4.63
2023-05-24T16:24:12.816Z,4.05
2023-05-24T16:26:39.652Z,4.35
2023-05-24T16:29:07.050Z,4.32
2023-05-24T16:31:34.067Z,4.88
2023-05-24T16:34:01.173Z,4.18
2023-05-24T16:36:28.058Z,5.05
2023-05-24T16:38:54.948Z,4.00
2023-05-24T16:41:21.923Z,4.43
2023-05-24T16:43:49.287Z,4.10
2023-05-24T16:46:16.247Z,4.20
2023-05-24T16:48:43.126Z,4.43
2023-05-24T16:51:09.996Z,4.15
2023-05-24T16:53:36.851Z,3.97
2023-05-24T16:56:06.602Z,3.97
2023-05-24T16:58:33.449Z,4.82
2023-05-24T17:01:00.708Z,3.63
2023-05-24T17:03:28.751Z,4.07
2023-05-24T17:06:01.929Z,3.90
2023-05-24T17:10:59.914Z,4.03
2023-05-24T17:13:30.021Z,4.32
2023-05-24T17:15:57.881Z,3.88
2023-05-24T17:18:28.923Z,3.85
2023-05-24T17:21:04.333Z,3.88
2023-05-24T17:23:33.800Z,3.85
2023-05-24T17:26:02.437Z,4.63
2023-05-24T17:28:29.880Z,3.97
2023-05-24T17:30:59.146Z,4.20
2023-05-24T17:33:28.551Z,4.03
2023-05-24T17:35:59.447Z,4.63
2023-05-24T17:38:26.301Z,4.20
2023-05-24T17:40:56.912Z,4.68
2023-05-24T17:43:25.014Z,4.82
2023-05-24T17:45:51.923Z,4.47
2023-05-24T17:48:18.806Z,3.63
2023-05-24T17:50:45.777Z,3.80
2023-05-24T17:53:29.962Z,4.50
2023-05-24T17:55:57.546Z,4.00
2023-05-24T17:58:24.397Z,3.80
2023-05-24T18:00:51.293Z,3.40
2023-05-24T18:03:18.179Z,4.70
2023-05-24T18:05:45.291Z,4.18
2023-05-24T18:08:12.194Z,3.90
2023-05-24T18:10:39.049Z,3.85
2023-05-24T18:13:09.430Z,3.95
2023-05-24T18:15:36.584Z,4.03
2023-05-24T18:18:03.744Z,3.72
2023-05-24T18:20:30.758Z,3.65
2023-05-24T18:22:57.712Z,3.80
2023-05-24T18:25:24.577Z,3.65
2023-05-24T18:27:51.590Z,4.18
2023-05-24T18:30:18.499Z,3.97
2023-05-24T18:32:56.299Z,4.35
2023-05-24T18:35:31.997Z,3.67
2023-05-24T18:38:01.585Z,4.38
2023-05-24T18:40:28.408Z,3.97
2023-05-24T18:42:55.208Z,3.42
2023-05-24T18:45:22.743Z,3.72
2023-05-24T18:47:49.606Z,3.92
2023-05-24T18:50:16.980Z,4.15
2023-05-24T18:52:43.852Z,4.30
2023-05-24T18:55:10.836Z,3.83
2023-05-24T18:57:38.414Z,4.22
2023-05-24T19:00:09.355Z,3.63
2023-05-24T19:02:38.657Z,3.60
2023-05-24T19:05:07.210Z,3.47
2023-05-24T19:07:35.350Z,3.75
2023-05-24T19:10:02.795Z,3.78
2023-05-24T19:12:30.405Z,4.15
2023-05-24T19:14:57.336Z,4.75
2023-05-24T19:17:24.973Z,3.88
2023-05-24T19:19:52.374Z,3.80
2023-05-24T19:22:19.497Z,4.72
2023-05-24T19:24:46.791Z,5.43
2023-05-24T19:27:13.694Z,4.95
2023-05-24T19:29:40.671Z,4.75
2023-05-24T19:32:08.310Z,4.72
2023-05-24T19:34:37.404Z,5.10
2023-05-24T19:37:04.492Z,4.28
2023-05-24T19:39:31.375Z,4.70
2023-05-24T19:41:58.193Z,4.05
2023-05-24T19:44:25.022Z,3.58
2023-05-24T19:46:51.850Z,4.30
2023-05-24T19:49:18.683Z,4.68
2023-05-24T19:51:45.643Z,4.88
2023-05-24T19:54:12.881Z,4.38
2023-05-24T19:56:39.756Z,4.88
2023-05-24T19:59:07.336Z,4.50
2023-05-24T20:01:34.414Z,4.75
2023-05-24T20:04:01.527Z,4.13
2023-05-24T20:06:29.444Z,3.60
2023-05-24T20:08:58.715Z,4.55
2023-05-24T20:11:26.547Z,3.83
2023-05-24T20:13:53.429Z,4.25
2023-05-24T20:16:20.481Z,4.25
2023-05-24T20:18:47.321Z,5.63
2023-05-24T20:21:17.746Z,5.45
2023-05-24T20:23:44.771Z,5.25
2023-05-24T20:26:11.698Z,4.95
2023-05-24T20:28:38.627Z,4.50
2023-05-24T20:31:06.458Z,5.43
2023-05-24T20:33:37.743Z,5.13
2023-05-24T20:36:05.372Z,4.60
2023-05-24T20:38:32.169Z,5.35
2023-05-24T20:40:59.664Z,5.32
2023-05-24T20:43:26.562Z,5.28
2023-05-24T20:45:53.809Z,4.93
2023-05-24T20:48:21.089Z,5.15
2023-05-24T20:50:48.056Z,4.82
2023-05-24T20:53:14.900Z,5.22
2023-05-24T20:55:41.854Z,4.85
2023-05-24T20:58:08.769Z,5.90
2023-05-24T21:00:37.632Z,5.55
2023-05-24T21:03:06.236Z,4.93
2023-05-24T21:05:36.301Z,4.70
2023-05-24T21:08:03.894Z,5.70
2023-05-24T21:10:30.755Z,5.82
2023-05-24T21:12:57.752Z,4.72
2023-05-24T21:15:24.897Z,5.50
2023-05-24T21:17:51.751Z,4.93
2023-05-24T21:20:18.655Z,4.65
2023-05-24T21:22:46.127Z,6.60
2023-05-24T21:25:13.118Z,5.15
2023-05-24T21:27:39.947Z,5.22
2023-05-24T21:30:07.877Z,5.63
2023-05-24T21:32:34.733Z,4.88
2023-05-24T21:35:01.690Z,5.00
2023-05-24T21:37:28.553Z,5.80
2023-05-24T21:39:55.543Z,5.68
2023-05-24T21:42:22.395Z,5.40
2023-05-24T21:44:49.265Z,4.90
2023-05-24T21:47:16.178Z,5.78
2023-05-24T21:49:43.102Z,5.75
2023-05-24T21:52:09.948Z,5.05
2023-05-24T21:54:36.796Z,5.40
2023-05-24T21:57:03.739Z,5.85
2023-05-24T21:59:30.584Z,4.82
2023-05-24T22:01:57.497Z,6.50
2023-05-24T22:04:24.452Z,6.38
2023-05-24T22:06:51.285Z,6.15
2023-05-24T22:09:18.104Z,6.13
2023-05-24T22:11:44.932Z,5.72
2023-05-24T22:14:11.782Z,5.72
2023-05-24T22:16:38.641Z,5.82
2023-05-24T22:19:14.852Z,6.15
2023-05-24T22:21:43.707Z,6.05
2023-05-24T22:24:10.752Z,6.68
2023-05-24T22:26:38.113Z,5.75
2023-05-24T22:29:05.002Z,6.15
2023-05-24T22:31:36.070Z,6.50
2023-05-24T22:34:02.986Z,6.38
2023-05-24T22:36:33.737Z,6.05
2023-05-24T22:39:05.152Z,7.10
2023-05-24T22:41:32.136Z,6.25
2023-05-24T22:43:59.600Z,6.00
2023-05-24T22:46:26.588Z,6.47
2023-05-24T22:48:53.487Z,6.22
2023-05-24T22:51:20.629Z,6.40
2023-05-24T22:53:48.322Z,7.22
2023-05-24T22:56:15.408Z,6.75
2023-05-24T22:58:42.255Z,7.05
2023-05-24T23:01:09.128Z,6.40
2023-05-24T23:03:36.164Z,5.72
2023-05-24T23:06:04.617Z,5.75
2023-05-24T23:08:32.464Z,6.50
2023-05-24T23:11:00.228Z,6.60
2023-05-24T23:13:33.716Z,5.70
2023-05-24T23:16:00.847Z,6.30
2023-05-24T23:18:28.147Z,6.18
2023-05-24T23:20:56.055Z,6.25
2023-05-24T23:23:24.597Z,6.30
2023-05-24T23:25:51.621Z,6.18
2023-05-24T23:28:18.971Z,6.68
2023-05-24T23:30:49.017Z,6.03
2023-05-24T23:33:15.874Z,6.05
2023-05-24T23:35:42.912Z,6.07
2023-05-24T23:38:09.878Z,6.07
2023-05-24T23:40:36.753Z,6.85
2023-05-24T23:43:04.339Z,6.30
2023-05-24T23:45:31.313Z,6.18
2023-05-24T23:47:58.744Z,5.72
2023-05-24T23:50:27.419Z,5.88
2023-05-24T23:52:54.944Z,5.90
2023-05-24T23:55:23.217Z,6.45
2023-05-24T23:57:50.417Z,5.93
